Weissert, Nebraska
Current Conditions -  °F | °C
As of 9:53 AM on Monday 24 Nov 2014 (Local Time) from KBBW Reporting Station
Clear Clear  
Wind Chill: 18°   Ceiling: Unl
Heat Index: 31°   Visibility: 10mi
Dew Point: 17°   Wind: 22mph
Humidity: 57%   Direction: 330°NNW
Pressure: 29.8"   Gusts: 32mph
Location:  41.47°N, 99.44°W
Report Text: KBBW 241553Z AUTO 33019G28KT 10SM CLR M01/M08 A2980 RMK AO2 PK WND 34032/1504 SLP109 T10061083 PWINO FZRANO $
Loading
Personal Weather Stations






























Interactive Weather Map New forecast layout! Learn more

10-Day Weather Forecast

Advertisements
Track Severe Weather on mobile